sensor_id;sensor_type;location;lat;lon;timestamp;pressure;altitude;pressure_sealevel;temperature;humidity
66486;BME280;53303;47.476;8.084;2023-04-29T00:00:45;95096.59;;;21.75;46.14
66486;BME280;53303;47.476;8.084;2023-04-29T00:03:14;95093.38;;;21.71;46.07
66486;BME280;53303;47.476;8.084;2023-04-29T00:05:39;95104.91;;;21.75;46.23
66486;BME280;53303;47.476;8.084;2023-04-29T00:08:05;95106.19;;;21.74;46.36
66486;BME280;53303;47.476;8.084;2023-04-29T00:10:30;95091.63;;;21.68;46.30
66486;BME280;53303;47.476;8.084;2023-04-29T00:12:56;95092.16;;;21.66;46.15
66486;BME280;53303;47.476;8.084;2023-04-29T00:15:21;95101.91;;;21.73;46.05
66486;BME280;53303;47.476;8.084;2023-04-29T00:17:46;95108.97;;;21.74;46.16
66486;BME280;53303;47.476;8.084;2023-04-29T00:20:14;95096.72;;;21.64;46.21
66486;BME280;53303;47.476;8.084;2023-04-29T00:22:40;95089.16;;;21.64;46.12
66486;BME280;53303;47.476;8.084;2023-04-29T00:25:06;95108.22;;;21.74;46.08
66486;BME280;53303;47.476;8.084;2023-04-29T00:27:31;95107.47;;;21.73;46.03
66486;BME280;53303;47.476;8.084;2023-04-29T00:29:57;95097.94;;;21.68;45.87
66486;BME280;53303;47.476;8.084;2023-04-29T00:32:23;95098.94;;;21.71;45.98
66486;BME280;53303;47.476;8.084;2023-04-29T00:34:49;95104.19;;;21.75;46.03
66486;BME280;53303;47.476;8.084;2023-04-29T00:37:14;95098.63;;;21.75;46.08
66486;BME280;53303;47.476;8.084;2023-04-29T00:39:42;95081.59;;;21.65;46.00
66486;BME280;53303;47.476;8.084;2023-04-29T00:42:08;95093.81;;;21.75;46.09
66486;BME280;53303;47.476;8.084;2023-04-29T00:44:34;95081.19;;;21.74;46.14
66486;BME280;53303;47.476;8.084;2023-04-29T00:47:02;95086.75;;;21.74;46.00
66486;BME280;53303;47.476;8.084;2023-04-29T00:49:28;95077.22;;;21.70;45.88
66486;BME280;53303;47.476;8.084;2023-04-29T00:51:55;95078.72;;;21.71;45.93
66486;BME280;53303;47.476;8.084;2023-04-29T00:54:22;95086.75;;;21.74;45.90
66486;BME280;53303;47.476;8.084;2023-04-29T00:56:48;95080.44;;;21.74;46.07
66486;BME280;53303;47.476;8.084;2023-04-29T00:59:14;95074.00;;;21.65;45.95
66486;BME280;53303;47.476;8.084;2023-04-29T01:01:41;95089.53;;;21.74;45.98
66486;BME280;53303;47.476;8.084;2023-04-29T01:04:06;95085.34;;;21.67;45.80
66486;BME280;53303;47.476;8.084;2023-04-29T01:11:51;95083.31;;;21.68;45.88
66486;BME280;53303;47.476;8.084;2023-04-29T01:14:18;95091.56;;;21.74;46.04
66486;BME280;53303;47.476;8.084;2023-04-29T01:16:47;95090.81;;;21.73;45.83
66486;BME280;53303;47.476;8.084;2023-04-29T01:22:01;95086.84;;;21.68;45.72
66486;BME280;53303;47.476;8.084;2023-04-29T01:24:26;95081.28;;;21.68;45.76
66486;BME280;53303;47.476;8.084;2023-04-29T01:26:58;95087.28;;;21.73;45.72
66486;BME280;53303;47.476;8.084;2023-04-29T01:29:52;95096.16;;;21.71;45.86
66486;BME280;53303;47.476;8.084;2023-04-29T01:40:42;95089.91;;;21.65;45.69
66486;BME280;53303;47.476;8.084;2023-04-29T01:43:15;95091.13;;;21.70;45.98
66486;BME280;53303;47.476;8.084;2023-04-29T01:45:42;95095.38;;;21.71;45.85
66486;BME280;53303;47.476;8.084;2023-04-29T01:48:12;95101.69;;;21.71;45.91
66486;BME280;53303;47.476;8.084;2023-04-29T01:50:38;95082.84;;;21.64;45.85
66486;BME280;53303;47.476;8.084;2023-04-29T01:53:03;95091.34;;;21.72;45.77
66486;BME280;53303;47.476;8.084;2023-04-29T01:55:29;95085.03;;;21.71;45.80
66486;BME280;53303;47.476;8.084;2023-04-29T01:57:54;95077.28;;;21.64;45.89
66486;BME280;53303;47.476;8.084;2023-04-29T02:00:19;95081.81;;;21.67;45.91
66486;BME280;53303;47.476;8.084;2023-04-29T02:02:46;95078.50;;;21.68;45.87
66486;BME280;53303;47.476;8.084;2023-04-29T02:05:11;95076.72;;;21.71;45.77
66486;BME280;53303;47.476;8.084;2023-04-29T02:07:36;95070.56;;;21.59;45.70
66486;BME280;53303;47.476;8.084;2023-04-29T02:10:02;95084.06;;;21.68;45.94
66486;BME280;53303;47.476;8.084;2023-04-29T02:12:27;95088.56;;;21.72;45.74
66486;BME280;53303;47.476;8.084;2023-04-29T02:14:53;95076.63;;;21.58;45.89
66486;BME280;53303;47.476;8.084;2023-04-29T02:17:19;95092.81;;;21.73;45.82
66486;BME280;53303;47.476;8.084;2023-04-29T02:19:44;95094.13;;;21.72;45.78
66486;BME280;53303;47.476;8.084;2023-04-29T02:22:09;95089.31;;;21.72;45.74
66486;BME280;53303;47.476;8.084;2023-04-29T02:24:37;95088.13;;;21.67;45.67
66486;BME280;53303;47.476;8.084;2023-04-29T02:27:02;95068.31;;;21.58;45.57
66486;BME280;53303;47.476;8.084;2023-04-29T02:29:30;95091.34;;;21.72;45.58
66486;BME280;53303;47.476;8.084;2023-04-29T02:31:58;95075.59;;;21.61;45.70
66486;BME280;53303;47.476;8.084;2023-04-29T02:34:23;95092.59;;;21.71;45.75
66486;BME280;53303;47.476;8.084;2023-04-29T02:36:49;95080.84;;;21.64;45.67
66486;BME280;53303;47.476;8.084;2023-04-29T02:39:16;95092.59;;;21.71;45.53
66486;BME280;53303;47.476;8.084;2023-04-29T02:41:42;95093.13;;;21.69;45.54
66486;BME280;53303;47.476;8.084;2023-04-29T02:44:07;95085.63;;;21.64;45.77
66486;BME280;53303;47.476;8.084;2023-04-29T02:46:33;95094.84;;;21.72;45.13
66486;BME280;53303;47.476;8.084;2023-04-29T02:49:00;95094.13;;;21.72;45.57
66486;BME280;53303;47.476;8.084;2023-04-29T02:51:26;95090.34;;;21.69;45.56
66486;BME280;53303;47.476;8.084;2023-04-29T02:53:52;95092.81;;;21.73;45.67
66486;BME280;53303;47.476;8.084;2023-04-29T02:56:17;95079.31;;;21.63;45.62
66486;BME280;53303;47.476;8.084;2023-04-29T02:58:43;95094.13;;;21.72;45.68
66486;BME280;53303;47.476;8.084;2023-04-29T03:01:08;95088.34;;;21.70;45.59
66486;BME280;53303;47.476;8.084;2023-04-29T03:03:33;95086.63;;;21.66;45.77
66486;BME280;53303;47.476;8.084;2023-04-29T03:05:59;95096.16;;;21.71;45.70
66486;BME280;53303;47.476;8.084;2023-04-29T03:08:27;95086.31;;;21.70;45.64
66486;BME280;53303;47.476;8.084;2023-04-29T03:10:52;95079.03;;;21.67;45.61
66486;BME280;53303;47.476;8.084;2023-04-29T03:13:18;95068.75;;;21.62;45.40
66486;BME280;53303;47.476;8.084;2023-04-29T03:15:44;95075.41;;;21.72;45.52
66486;BME280;53303;47.476;8.084;2023-04-29T03:18:10;95072.44;;;21.70;45.46
66486;BME280;53303;47.476;8.084;2023-04-29T03:20:35;95070.38;;;21.71;45.22
66486;BME280;53303;47.476;8.084;2023-04-29T03:23:01;95066.66;;;21.68;45.32
66486;BME280;53303;47.476;8.084;2023-04-29T03:25:26;95075.94;;;21.71;45.39
66486;BME280;53303;47.476;8.084;2023-04-29T03:27:52;95048.66;;;21.56;45.31
66486;BME280;53303;47.476;8.084;2023-04-29T03:30:18;95070.38;;;21.71;45.54
66486;BME280;53303;47.476;8.084;2023-04-29T03:32:43;95060.63;;;21.64;45.59
66486;BME280;53303;47.476;8.084;2023-04-29T03:35:09;95060.63;;;21.64;45.59
66486;BME280;53303;47.476;8.084;2023-04-29T03:37:36;95072.94;;;21.68;45.53
66486;BME280;53303;47.476;8.084;2023-04-29T03:40:01;95065.97;;;21.62;45.41
66486;BME280;53303;47.476;8.084;2023-04-29T03:42:27;95081.50;;;21.71;45.54
66486;BME280;53303;47.476;8.084;2023-04-29T03:44:52;95064.47;;;21.61;45.31
66486;BME280;53303;47.476;8.084;2023-04-29T03:47:17;95068.91;;;21.70;45.55
66486;BME280;53303;47.476;8.084;2023-04-29T03:49:43;95065.44;;;21.63;45.42
66486;BME280;53303;47.476;8.084;2023-04-29T03:52:08;95072.72;;;21.66;45.54
66486;BME280;53303;47.476;8.084;2023-04-29T03:54:34;95077.22;;;21.70;45.22
66486;BME280;53303;47.476;8.084;2023-04-29T03:56:59;95069.66;;;21.70;45.33
66486;BME280;53303;47.476;8.084;2023-04-29T03:59:25;95070.16;;;21.68;45.21
66486;BME280;53303;47.476;8.084;2023-04-29T04:01:50;95060.94;;;21.60;45.58
66486;BME280;53303;47.476;8.084;2023-04-29T04:04:18;95071.00;;;21.63;45.46
66486;BME280;53303;47.476;8.084;2023-04-29T04:06:46;95081.50;;;21.71;45.35
66486;BME280;53303;47.476;8.084;2023-04-29T04:09:19;95070.03;;;21.61;45.46
66486;BME280;53303;47.476;8.084;2023-04-29T04:11:45;95092.59;;;21.71;45.33
66486;BME280;53303;47.476;8.084;2023-04-29T04:14:10;95077.28;;;21.64;45.26
66486;BME280;53303;47.476;8.084;2023-04-29T04:16:36;95077.38;;;21.58;45.18
66486;BME280;53303;47.476;8.084;2023-04-29T04:19:04;95089.81;;;21.71;45.41
66486;BME280;53303;47.476;8.084;2023-04-29T04:21:29;95085.41;;;21.62;45.31
66486;BME280;53303;47.476;8.084;2023-04-29T04:23:55;95102.00;;;21.67;45.18
66486;BME280;53303;47.476;8.084;2023-04-29T04:26:21;95100.94;;;21.71;45.40
66486;BME280;53303;47.476;8.084;2023-04-29T04:28:47;95110.03;;;21.71;45.47
66486;BME280;53303;47.476;8.084;2023-04-29T04:31:13;95092.47;;;21.63;45.47
66486;BME280;53303;47.476;8.084;2023-04-29T04:33:41;95107.00;;;21.69;45.49
66486;BME280;53303;47.476;8.084;2023-04-29T04:36:07;95108.53;;;21.70;45.39
66486;BME280;53303;47.476;8.084;2023-04-29T04:38:32;95113.34;;;21.70;45.45
66486;BME280;53303;47.476;8.084;2023-04-29T04:40:58;95113.34;;;21.70;45.42
66486;BME280;53303;47.476;8.084;2023-04-29T04:43:24;95110.56;;;21.70;45.56
66486;BME280;53303;47.476;8.084;2023-04-29T04:45:52;95102.06;;;21.62;45.46
66486;BME280;53303;47.476;8.084;2023-04-29T04:48:17;95103.78;;;21.65;45.30
66486;BME280;53303;47.476;8.084;2023-04-29T04:50:43;95109.78;;;21.69;45.23
66486;BME280;53303;47.476;8.084;2023-04-29T04:53:08;95118.13;;;21.69;45.28
66486;BME280;53303;47.476;8.084;2023-04-29T04:55:33;95112.44;;;21.61;45.28
66486;BME280;53303;47.476;8.084;2023-04-29T04:57:59;95115.34;;;21.69;45.38
66486;BME280;53303;47.476;8.084;2023-04-29T05:00:27;95105.34;;;21.60;45.28
66486;BME280;53303;47.476;8.084;2023-04-29T05:02:52;95118.88;;;21.70;45.42
66486;BME280;53303;47.476;8.084;2023-04-29T05:05:17;95125.19;;;21.70;45.28
66486;BME280;53303;47.476;8.084;2023-04-29T05:07:43;95119.63;;;21.70;45.43
66486;BME280;53303;47.476;8.084;2023-04-29T05:10:09;95128.69;;;21.71;45.23
66486;BME280;53303;47.476;8.084;2023-04-29T05:12:34;95125.47;;;21.66;45.28
66486;BME280;53303;47.476;8.084;2023-04-29T05:15:00;95127.22;;;21.70;45.40
66486;BME280;53303;47.476;8.084;2023-04-29T05:17:26;95132.25;;;21.71;45.23
66486;BME280;53303;47.476;8.084;2023-04-29T05:19:51;95134.25;;;21.71;45.28
66486;BME280;53303;47.476;8.084;2023-04-29T05:22:17;95130.03;;;21.64;45.20
66486;BME280;53303;47.476;8.084;2023-04-29T05:24:42;95139.06;;;21.70;45.28
66486;BME280;53303;47.476;8.084;2023-04-29T05:27:08;95145.38;;;21.71;45.41
66486;BME280;53303;47.476;8.084;2023-04-29T05:29:33;95135.84;;;21.66;45.21
66486;BME280;53303;47.476;8.084;2023-04-29T05:31:59;95134.13;;;21.63;45.24
66486;BME280;53303;47.476;8.084;2023-04-29T05:34:24;95131.13;;;21.61;45.33
66486;BME280;53303;47.476;8.084;2023-04-29T05:36:50;95141.63;;;21.68;45.32
66486;BME280;53303;47.476;8.084;2023-04-29T05:39:15;95148.44;;;21.67;45.36
66486;BME280;53303;47.476;8.084;2023-04-29T05:41:42;95147.47;;;21.64;45.16
66486;BME280;53303;47.476;8.084;2023-04-29T05:44:07;95145.44;;;21.65;45.39
66486;BME280;53303;47.476;8.084;2023-04-29T05:46:33;95160.75;;;21.72;45.29
66486;BME280;53303;47.476;8.084;2023-04-29T05:49:00;95164.28;;;21.72;45.14
66486;BME280;53303;47.476;8.084;2023-04-29T05:51:26;95158.81;;;21.66;45.41
66486;BME280;53303;47.476;8.084;2023-04-29T05:53:53;95158.81;;;21.66;45.26
66486;BME280;53303;47.476;8.084;2023-04-29T05:56:18;95161.50;;;21.72;45.20
66486;BME280;53303;47.476;8.084;2023-04-29T05:58:44;95162.78;;;21.71;44.80
66486;BME280;53303;47.476;8.084;2023-04-29T06:01:09;95151.00;;;21.65;45.12
66486;BME280;53303;47.476;8.084;2023-04-29T06:03:35;95148.22;;;21.65;45.19
66486;BME280;53303;47.476;8.084;2023-04-29T06:06:01;95155.94;;;21.72;45.17
66486;BME280;53303;47.476;8.084;2023-04-29T06:08:26;95154.22;;;21.69;45.00
66486;BME280;53303;47.476;8.084;2023-04-29T06:10:55;95147.47;;;21.64;45.11
66486;BME280;53303;47.476;8.084;2023-04-29T06:13:20;95145.44;;;21.65;45.32
66486;BME280;53303;47.476;8.084;2023-04-29T06:15:46;95155.22;;;21.72;45.52
66486;BME280;53303;47.476;8.084;2023-04-29T06:18:12;95153.69;;;21.71;45.17
66486;BME280;53303;47.476;8.084;2023-04-29T06:20:37;95155.50;;;21.68;45.05
66486;BME280;53303;47.476;8.084;2023-04-29T06:23:05;95155.66;;;21.76;45.13
66486;BME280;53303;47.476;8.084;2023-04-29T06:25:34;95158.44;;;21.76;45.50
66486;BME280;53303;47.476;8.084;2023-04-29T06:27:59;95150.91;;;21.71;45.59
66486;BME280;53303;47.476;8.084;2023-04-29T06:30:25;95164.97;;;21.78;45.88
66486;BME280;53303;47.476;8.084;2023-04-29T06:32:51;95172.00;;;21.79;46.09
66486;BME280;53303;47.476;8.084;2023-04-29T06:35:18;95164.97;;;21.78;46.15
66486;BME280;53303;47.476;8.084;2023-04-29T06:37:44;95167.97;;;21.80;46.03
66486;BME280;53303;47.476;8.084;2023-04-29T06:40:10;95160.03;;;21.71;46.17
66486;BME280;53303;47.476;8.084;2023-04-29T06:42:35;95163.75;;;21.74;46.10
66486;BME280;53303;47.476;8.084;2023-04-29T06:45:01;95164.50;;;21.74;46.38
66486;BME280;53303;47.476;8.084;2023-04-29T06:47:26;95176.09;;;21.78;46.45
66486;BME280;53303;47.476;8.084;2023-04-29T06:49:52;95171.56;;;21.75;46.67
66486;BME280;53303;47.476;8.084;2023-04-29T06:52:17;95168.88;;;21.70;46.46
66486;BME280;53303;47.476;8.084;2023-04-29T06:54:43;95178.84;;;21.78;46.49
66486;BME280;53303;47.476;8.084;2023-04-29T06:57:08;95179.59;;;21.79;46.63
66486;BME280;53303;47.476;8.084;2023-04-29T06:59:34;95182.38;;;21.79;46.57
66486;BME280;53303;47.476;8.084;2023-04-29T07:01:59;95153.31;;;21.61;46.68
66486;BME280;53303;47.476;8.084;2023-04-29T07:04:25;95176.09;;;21.78;46.59
66486;BME280;53303;47.476;8.084;2023-04-29T07:06:50;95166.75;;;21.76;46.65
66486;BME280;53303;47.476;8.084;2023-04-29T07:09:15;95176.09;;;21.78;46.71
66486;BME280;53303;47.476;8.084;2023-04-29T07:11:41;95170.53;;;21.78;46.55
66486;BME280;53303;47.476;8.084;2023-04-29T07:14:07;95170.34;;;21.71;46.62
66486;BME280;53303;47.476;8.084;2023-04-29T07:16:32;95182.91;;;21.77;46.56
66486;BME280;53303;47.476;8.084;2023-04-29T07:18:58;95188.44;;;21.77;46.60
66486;BME280;53303;47.476;8.084;2023-04-29T07:21:24;95174.19;;;21.67;46.39
66486;BME280;53303;47.476;8.084;2023-04-29T07:23:49;95189.78;;;21.71;46.66
66486;BME280;53303;47.476;8.084;2023-04-29T07:26:16;95189.72;;;21.76;46.57
66486;BME280;53303;47.476;8.084;2023-04-29T07:28:42;95195.28;;;21.76;46.23
66486;BME280;53303;47.476;8.084;2023-04-29T07:31:08;95186.19;;;21.76;46.50
66486;BME280;53303;47.476;8.084;2023-04-29T07:33:34;95201.59;;;21.77;46.89
66486;BME280;53303;47.476;8.084;2023-04-29T07:36:00;95199.56;;;21.77;46.50
66486;BME280;53303;47.476;8.084;2023-04-29T07:38:28;95203.84;;;21.78;46.43
66486;BME280;53303;47.476;8.084;2023-04-29T07:40:56;95210.16;;;21.79;46.52
66486;BME280;53303;47.476;8.084;2023-04-29T07:43:21;95190.56;;;21.71;46.41
66486;BME280;53303;47.476;8.084;2023-04-29T07:45:49;95190.00;;;21.73;46.66
66486;BME280;53303;47.476;8.084;2023-04-29T07:48:15;95206.84;;;21.80;47.02
66486;BME280;53303;47.476;8.084;2023-04-29T07:50:40;95201.75;;;21.84;46.86
66486;BME280;53303;47.476;8.084;2023-04-29T07:53:06;95199.94;;;21.87;46.50
66486;BME280;53303;47.476;8.084;2023-04-29T07:55:32;95194.38;;;21.87;46.46
66486;BME280;53303;47.476;8.084;2023-04-29T07:57:58;95193.41;;;21.84;47.18
66486;BME280;53303;47.476;8.084;2023-04-29T08:00:24;95202.19;;;21.89;47.14
66486;BME280;53303;47.476;8.084;2023-04-29T08:02:50;95196.19;;;21.84;47.29
66486;BME280;53303;47.476;8.084;2023-04-29T08:05:16;95199.41;;;21.89;46.99
66486;BME280;53303;47.476;8.084;2023-04-29T08:07:42;95193.84;;;21.89;47.02
66486;BME280;53303;47.476;8.084;2023-04-29T08:10:07;95194.38;;;21.87;47.03
66486;BME280;53303;47.476;8.084;2023-04-29T08:12:33;95200.69;;;21.88;46.97
66486;BME280;53303;47.476;8.084;2023-04-29T08:14:58;95193.94;;;21.83;47.05
66486;BME280;53303;47.476;8.084;2023-04-29T08:17:24;95168.88;;;21.70;47.05
66486;BME280;53303;47.476;8.084;2023-04-29T08:19:49;95196.94;;;21.85;46.80
66486;BME280;53303;47.476;8.084;2023-04-29T08:22:15;95192.66;;;21.84;47.06
66486;BME280;53303;47.476;8.084;2023-04-29T08:24:40;95202.72;;;21.87;46.76
66486;BME280;53303;47.476;8.084;2023-04-29T08:27:07;95190.94;;;21.81;46.82
66486;BME280;53303;47.476;8.084;2023-04-29T08:29:32;95197.69;;;21.85;46.97
66486;BME280;53303;47.476;8.084;2023-04-29T08:31:58;95186.41;;;21.78;46.76
66486;BME280;53303;47.476;8.084;2023-04-29T08:34:27;95194.91;;;21.85;46.74
66486;BME280;53303;47.476;8.084;2023-04-29T08:36:52;95199.72;;;21.85;46.85
66486;BME280;53303;47.476;8.084;2023-04-29T08:39:17;95186.94;;;21.76;46.68
66486;BME280;53303;47.476;8.084;2023-04-29T08:41:43;95203.78;;;21.84;46.60
66486;BME280;53303;47.476;8.084;2023-04-29T08:44:14;95200.53;;;21.80;46.83
66486;BME280;53303;47.476;8.084;2023-04-29T08:46:43;95208.03;;;21.85;46.60
66486;BME280;53303;47.476;8.084;2023-04-29T08:49:10;95189.13;;;21.83;46.62
66486;BME280;53303;47.476;8.084;2023-04-29T08:51:35;95184.16;;;21.76;46.78
66486;BME280;53303;47.476;8.084;2023-04-29T08:54:03;95189.41;;;21.80;46.50
66486;BME280;53303;47.476;8.084;2023-04-29T08:56:30;95195.53;;;21.78;46.74
66486;BME280;53303;47.476;8.084;2023-04-29T08:58:56;95188.91;;;21.81;46.56
66486;BME280;53303;47.476;8.084;2023-04-29T09:01:27;95188.97;;;21.76;46.51
66486;BME280;53303;47.476;8.084;2023-04-29T09:06:18;95192.06;;;21.72;46.36
66486;BME280;53303;47.476;8.084;2023-04-29T09:08:46;95185.22;;;21.73;46.59
66486;BME280;53303;47.476;8.084;2023-04-29T09:11:15;95196.72;;;21.83;46.36
66486;BME280;53303;47.476;8.084;2023-04-29T09:13:41;95195.44;;;21.84;46.62
66486;BME280;53303;47.476;8.084;2023-04-29T09:16:11;95183.56;;;21.83;47.86
66486;BME280;53303;47.476;8.084;2023-04-29T09:18:48;95190.19;;;21.80;48.96
66486;BME280;53303;47.476;8.084;2023-04-29T09:21:18;95194.66;;;21.83;50.00
66486;BME280;53303;47.476;8.084;2023-04-29T09:23:47;95185.91;;;21.79;49.60
66486;BME280;53303;47.476;8.084;2023-04-29T09:26:14;95197.44;;;21.83;49.30
66486;BME280;53303;47.476;8.084;2023-04-29T09:28:42;95189.72;;;21.76;49.00
66486;BME280;53303;47.476;8.084;2023-04-29T09:31:11;95198.97;;;21.84;48.86
66486;BME280;53303;47.476;8.084;2023-04-29T09:36:42;95194.97;;;21.80;48.55
66486;BME280;53303;47.476;8.084;2023-04-29T09:44:24;95182.91;;;21.77;48.29
66486;BME280;53303;47.476;8.084;2023-04-29T09:47:04;95192.97;;;21.80;48.28
66486;BME280;53303;47.476;8.084;2023-04-29T09:49:37;95199.47;;;21.83;48.13
66486;BME280;53303;47.476;8.084;2023-04-29T09:52:10;95191.16;;;21.83;48.16
66486;BME280;53303;47.476;8.084;2023-04-29T09:54:37;95176.13;;;21.73;48.04
66486;BME280;53303;47.476;8.084;2023-04-29T09:57:07;95187.63;;;21.82;47.75
66486;BME280;53303;47.476;8.084;2023-04-29T09:59:34;95172.84;;;21.74;47.98
66486;BME280;53303;47.476;8.084;2023-04-29T10:02:01;95180.88;;;21.78;47.87
66486;BME280;53303;47.476;8.084;2023-04-29T10:04:34;95180.03;;;21.83;47.50
66486;BME280;53303;47.476;8.084;2023-04-29T10:07:00;95178.31;;;21.80;47.57
66486;BME280;53303;47.476;8.084;2023-04-29T10:09:26;95182.81;;;21.83;47.45
66486;BME280;53303;47.476;8.084;2023-04-29T10:11:52;95171.28;;;21.79;47.42
66486;BME280;53303;47.476;8.084;2023-04-29T10:14:23;95175.22;;;21.83;47.43
66486;BME280;53303;47.476;8.084;2023-04-29T10:17:02;95166.69;;;21.81;47.31
66486;BME280;53303;47.476;8.084;2023-04-29T10:22:06;95176.00;;;21.84;47.22
66486;BME280;53303;47.476;8.084;2023-04-29T10:24:35;95174.50;;;21.83;47.11
66486;BME280;53303;47.476;8.084;2023-04-29T10:27:02;95180.78;;;21.83;47.27
66486;BME280;53303;47.476;8.084;2023-04-29T10:29:33;95169.75;;;21.78;47.07
66486;BME280;53303;47.476;8.084;2023-04-29T10:31:59;95173.97;;;21.84;46.96
66486;BME280;53303;47.476;8.084;2023-04-29T10:34:26;95171.19;;;21.84;47.11
66486;BME280;53303;47.476;8.084;2023-04-29T10:36:52;95175.31;;;21.78;46.79
66486;BME280;53303;47.476;8.084;2023-04-29T10:39:26;95163.75;;;21.74;46.84
66486;BME280;53303;47.476;8.084;2023-04-29T10:41:55;95173.22;;;21.84;46.88
66486;BME280;53303;47.476;8.084;2023-04-29T10:44:20;95166.47;;;21.79;46.76
66486;BME280;53303;47.476;8.084;2023-04-29T10:46:48;95173.22;;;21.84;46.82
66486;BME280;53303;47.476;8.084;2023-04-29T10:49:13;95161.41;;;21.78;46.67
66486;BME280;53303;47.476;8.084;2023-04-29T10:51:41;95175.47;;;21.85;46.55
66486;BME280;53303;47.476;8.084;2023-04-29T10:56:42;95172.69;;;21.85;46.45
66486;BME280;53303;47.476;8.084;2023-04-29T10:59:09;95165.41;;;21.82;46.55
66486;BME280;53303;47.476;8.084;2023-04-29T11:04:11;95170.66;;;21.86;46.30
66486;BME280;53303;47.476;8.084;2023-04-29T11:06:38;95168.63;;;21.86;46.38
66486;BME280;53303;47.476;8.084;2023-04-29T11:09:26;95169.69;;;21.83;46.40
66486;BME280;53303;47.476;8.084;2023-04-29T11:14:23;95164.59;;;21.88;46.25
66486;BME280;53303;47.476;8.084;2023-04-29T11:16:55;95167.38;;;21.88;46.31
66486;BME280;53303;47.476;8.084;2023-04-29T11:19:24;95174.41;;;21.89;46.06
66486;BME280;53303;47.476;8.084;2023-04-29T11:24:34;95173.66;;;21.88;46.12
66486;BME280;53303;47.476;8.084;2023-04-29T11:27:03;95169.69;;;21.83;45.80
66486;BME280;53303;47.476;8.084;2023-04-29T11:29:32;95164.59;;;21.88;46.07
66486;BME280;53303;47.476;8.084;2023-04-29T11:32:00;95172.41;;;21.89;45.97
66486;BME280;53303;47.476;8.084;2023-04-29T11:34:25;95166.28;;;21.91;46.08
66486;BME280;53303;47.476;8.084;2023-04-29T11:36:52;95157.59;;;21.81;45.96
66486;BME280;53303;47.476;8.084;2023-04-29T11:39:17;95157.81;;;21.83;45.91
66486;BME280;53303;47.476;8.084;2023-04-29T11:41:43;95167.81;;;21.92;45.85
66486;BME280;53303;47.476;8.084;2023-04-29T11:44:10;95147.16;;;21.87;45.89
66486;BME280;53303;47.476;8.084;2023-04-29T11:46:36;95160.44;;;21.94;45.92
66486;BME280;53303;47.476;8.084;2023-04-29T11:49:01;95158.94;;;21.93;45.81
66486;BME280;53303;47.476;8.084;2023-04-29T11:51:29;95166.97;;;21.97;45.83
66486;BME280;53303;47.476;8.084;2023-04-29T11:53:56;95140.34;;;21.88;45.67
66486;BME280;53303;47.476;8.084;2023-04-29T11:56:23;95167.94;;;21.99;45.72
66486;BME280;53303;47.476;8.084;2023-04-29T11:58:55;95159.63;;;21.99;45.49
66486;BME280;53303;47.476;8.084;2023-04-29T12:01:21;95163.91;;;22.00;45.67
66486;BME280;53303;47.476;8.084;2023-04-29T12:03:49;95150.84;;;21.95;45.54
66486;BME280;53303;47.476;8.084;2023-04-29T12:06:17;95169.69;;;22.02;45.69
66486;BME280;53303;47.476;8.084;2023-04-29T12:08:48;95165.63;;;22.03;45.53
66486;BME280;53303;47.476;8.084;2023-04-29T12:11:13;95161.44;;;21.97;45.71
66486;BME280;53303;47.476;8.084;2023-04-29T12:13:39;95160.59;;;22.02;45.63
66486;BME280;53303;47.476;8.084;2023-04-29T12:16:05;95163.06;;;22.05;45.53
66486;BME280;53303;47.476;8.084;2023-04-29T12:18:33;95157.53;;;22.05;45.41
66486;BME280;53303;47.476;8.084;2023-04-29T12:20:59;95169.59;;;22.08;45.67
66486;BME280;53303;47.476;8.084;2023-04-29T12:23:25;95166.81;;;22.08;45.40
66486;BME280;53303;47.476;8.084;2023-04-29T12:25:55;95156.53;;;22.03;45.38
66486;BME280;53303;47.476;8.084;2023-04-29T12:28:22;95164.88;;;22.03;45.40
66486;BME280;53303;47.476;8.084;2023-04-29T12:30:49;95174.09;;;22.11;45.49
66486;BME280;53303;47.476;8.084;2023-04-29T12:33:25;95165.53;;;22.09;45.33
66486;BME280;53303;47.476;8.084;2023-04-29T12:35:54;95156.91;;;22.13;45.29
66486;BME280;53303;47.476;8.084;2023-04-29T12:38:25;95164.03;;;22.08;45.44
66486;BME280;53303;47.476;8.084;2023-04-29T12:40:55;95149.19;;;22.05;45.40
66486;BME280;53303;47.476;8.084;2023-04-29T12:43:31;95150.66;;;22.06;45.20
66486;BME280;53303;47.476;8.084;2023-04-29T12:46:05;95169.75;;;22.16;45.16
66486;BME280;53303;47.476;8.084;2023-04-29T12:48:35;95167.19;;;22.18;45.17
66486;BME280;53303;47.476;8.084;2023-04-29T12:51:03;95165.16;;;22.18;45.08
66486;BME280;53303;47.476;8.084;2023-04-29T12:53:29;95160.34;;;22.19;45.30
66486;BME280;53303;47.476;8.084;2023-04-29T12:55:55;95147.28;;;22.14;45.17
66486;BME280;53303;47.476;8.084;2023-04-29T12:58:23;95166.34;;;22.23;45.17
66486;BME280;53303;47.476;8.084;2023-04-29T13:00:49;95159.50;;;22.24;44.96
66486;BME280;53303;47.476;8.084;2023-04-29T13:03:14;95153.81;;;22.16;44.95
66486;BME280;53303;47.476;8.084;2023-04-29T13:05:40;95164.03;;;22.27;44.84
66486;BME280;53303;47.476;8.084;2023-04-29T13:08:06;95163.53;;;22.29;44.85
66486;BME280;53303;47.476;8.084;2023-04-29T13:10:33;95164.47;;;22.31;44.79
66486;BME280;53303;47.476;8.084;2023-04-29T13:12:58;95169.28;;;22.31;44.94
66486;BME280;53303;47.476;8.084;2023-04-29T13:15:25;95162.16;;;22.35;44.79
66486;BME280;53303;47.476;8.084;2023-04-29T13:17:51;95155.94;;;22.29;44.78
66486;BME280;53303;47.476;8.084;2023-04-29T13:20:16;95153.16;;;22.29;44.90
66486;BME280;53303;47.476;8.084;2023-04-29T13:22:42;95162.91;;;22.36;44.83
66486;BME280;53303;47.476;8.084;2023-04-29T13:25:09;95156.81;;;22.37;44.86
66486;BME280;53303;47.476;8.084;2023-04-29T13:27:36;95147.81;;;22.31;44.77
66486;BME280;53303;47.476;8.084;2023-04-29T13:30:01;95152.53;;;22.36;44.78
66486;BME280;53303;47.476;8.084;2023-04-29T13:32:27;95149.53;;;22.34;45.01
66486;BME280;53303;47.476;8.084;2023-04-29T13:34:53;95154.03;;;22.37;44.71
66486;BME280;53303;47.476;8.084;2023-04-29T13:37:19;95150.19;;;22.40;44.79